createdAt,value
2022-10-19T00:04:07.917Z,8.86
2022-10-19T00:09:14.059Z,8.78
2022-10-19T00:14:19.910Z,8.78
2022-10-19T00:19:26.938Z,8.68
2022-10-19T00:24:29.975Z,8.67
2022-10-19T00:29:33.276Z,8.62
2022-10-19T00:34:37.656Z,8.54
2022-10-19T00:39:41.079Z,8.51
2022-10-19T00:45:15.111Z,8.42
2022-10-19T00:50:20.062Z,8.44
2022-10-19T00:55:22.954Z,8.41
2022-10-19T01:00:26.041Z,8.37
2022-10-19T01:05:31.959Z,8.32
2022-10-19T01:10:46.617Z,8.31
2022-10-19T01:15:57.732Z,8.31
2022-10-19T01:21:18.068Z,8.27
2022-10-19T01:26:38.591Z,8.28
2022-10-19T01:31:48.810Z,8.26
2022-10-19T01:37:01.757Z,8.22
2022-10-19T01:42:12.839Z,8.26
2022-10-19T01:47:22.709Z,8.24
2022-10-19T01:52:28.286Z,8.24
2022-10-19T01:57:34.730Z,8.22
2022-10-19T02:02:42.718Z,8.18
2022-10-19T02:07:50.593Z,8.15
2022-10-19T02:12:56.506Z,8.13
2022-10-19T02:18:02.096Z,8.09
2022-10-19T02:23:05.709Z,8.02
2022-10-19T02:28:08.931Z,8.03
2022-10-19T02:33:13.581Z,7.97
2022-10-19T02:38:20.288Z,7.87
2022-10-19T02:43:25.667Z,7.81
2022-10-19T02:48:33.411Z,7.75
2022-10-19T02:53:36.282Z,7.71
2022-10-19T02:58:39.205Z,7.65
2022-10-19T03:03:43.815Z,7.64
2022-10-19T03:08:47.031Z,7.60
2022-10-19T03:13:49.935Z,7.56
2022-10-19T03:18:54.847Z,7.52
2022-10-19T03:23:57.837Z,7.50
2022-10-19T03:29:01.096Z,7.47
2022-10-19T03:34:05.457Z,7.42
2022-10-19T03:39:11.215Z,7.36
2022-10-19T03:44:14.352Z,7.34
2022-10-19T03:49:18.741Z,7.29
2022-10-19T03:54:24.966Z,7.30
2022-10-19T03:59:30.543Z,7.27
2022-10-19T04:04:34.948Z,7.25
2022-10-19T04:09:37.866Z,7.22
2022-10-19T04:14:56.326Z,7.17
2022-10-19T04:20:01.560Z,7.15
2022-10-19T04:25:05.047Z,7.10
2022-10-19T04:30:08.961Z,7.08
2022-10-19T04:35:13.277Z,7.06
2022-10-19T04:40:16.460Z,7.01
2022-10-19T04:45:19.581Z,6.99
2022-10-19T04:50:24.076Z,6.94
2022-10-19T04:55:31.607Z,6.94
2022-10-19T05:00:34.700Z,6.91
2022-10-19T05:05:39.227Z,6.85
2022-10-19T05:10:44.295Z,6.88
2022-10-19T05:15:57.075Z,6.86
2022-10-19T05:21:06.275Z,6.81
2022-10-19T05:26:11.686Z,6.78
2022-10-19T05:31:16.739Z,6.78
2022-10-19T05:36:25.358Z,6.73
2022-10-19T05:41:28.792Z,6.73
2022-10-19T05:46:33.688Z,6.71
2022-10-19T05:51:38.096Z,6.66
2022-10-19T05:56:42.346Z,6.67
2022-10-19T06:01:46.008Z,6.59
2022-10-19T06:06:50.449Z,6.59
2022-10-19T06:11:53.780Z,6.57
2022-10-19T06:16:56.796Z,6.53
2022-10-19T06:22:01.217Z,6.56
2022-10-19T06:27:06.571Z,6.55
2022-10-19T06:32:09.732Z,6.56
2022-10-19T06:37:14.119Z,6.59
2022-10-19T06:42:17.473Z,6.64
2022-10-19T06:47:20.542Z,6.66
2022-10-19T06:52:24.985Z,6.70
2022-10-19T06:57:28.681Z,6.76
2022-10-19T07:02:31.726Z,6.84
2022-10-19T07:07:36.995Z,6.87
2022-10-19T07:12:40.380Z,6.92
2022-10-19T07:17:43.378Z,6.94
2022-10-19T07:22:47.779Z,7.09
2022-10-19T07:27:50.826Z,7.20
2022-10-19T07:32:53.795Z,7.30
2022-10-19T07:37:58.122Z,7.41
2022-10-19T07:43:01.210Z,7.48
2022-10-19T07:48:04.509Z,7.62
2022-10-19T07:53:09.082Z,7.75
2022-10-19T07:58:12.083Z,7.88
2022-10-19T08:08:40.157Z,8.12
2022-10-19T08:13:43.889Z,8.26
2022-10-19T08:18:46.944Z,8.37
2022-10-19T08:23:52.177Z,8.52
2022-10-19T08:29:00.030Z,8.74
2022-10-19T08:34:03.247Z,9.07
2022-10-19T08:39:10.055Z,9.45
2022-10-19T08:44:29.453Z,9.86
2022-10-19T08:49:33.541Z,10.20
2022-10-19T08:54:43.514Z,10.69
2022-10-19T08:59:53.074Z,11.08
2022-10-19T09:05:01.475Z,11.38
2022-10-19T09:10:19.315Z,11.64
2022-10-19T09:15:27.746Z,11.80
2022-10-19T09:20:38.069Z,12.00
2022-10-19T09:25:42.826Z,12.20
2022-10-19T09:30:48.178Z,12.33
2022-10-19T09:35:51.993Z,12.64
2022-10-19T09:40:58.134Z,12.89
2022-10-19T09:46:15.184Z,13.05
2022-10-19T09:51:25.661Z,13.27
2022-10-19T09:56:30.112Z,13.33
2022-10-19T17:24:47.354Z,12.82
2022-10-19T17:29:52.579Z,12.72
2022-10-19T17:34:55.953Z,12.66
2022-10-19T17:40:00.695Z,12.57
2022-10-19T17:45:03.716Z,12.54
2022-10-19T17:50:07.486Z,12.44
2022-10-19T17:55:13.084Z,12.39
2022-10-19T18:00:16.632Z,12.36
2022-10-19T18:05:19.756Z,12.27
2022-10-19T18:10:24.343Z,12.16
2022-10-19T18:15:27.541Z,12.04
2022-10-19T18:20:30.637Z,11.95
2022-10-19T18:25:53.440Z,11.84
2022-10-19T18:30:57.474Z,11.73
2022-10-19T18:36:00.771Z,11.66
2022-10-19T18:41:06.728Z,11.57
2022-10-19T18:46:10.824Z,11.56
2022-10-19T18:51:15.728Z,11.49
2022-10-19T18:56:22.251Z,11.42
2022-10-19T19:01:28.116Z,11.35
2022-10-19T19:06:33.964Z,11.23
2022-10-19T19:11:41.196Z,11.15
2022-10-19T19:16:46.242Z,11.08
2022-10-19T19:21:50.007Z,11.06
2022-10-19T19:26:58.086Z,10.97
2022-10-19T19:32:01.247Z,10.94
2022-10-19T19:37:11.372Z,10.84
2022-10-19T19:42:16.439Z,10.80
2022-10-19T19:47:22.318Z,10.70
2022-10-19T19:52:25.352Z,10.72
2022-10-19T19:57:30.046Z,10.65
2022-10-19T20:02:37.357Z,10.64
2022-10-19T20:07:40.578Z,10.60
2022-10-19T20:12:45.119Z,10.55
2022-10-19T20:17:50.112Z,10.51
2022-10-19T20:22:53.696Z,10.48
2022-10-19T20:27:58.283Z,10.41
2022-10-19T20:33:01.427Z,10.38
2022-10-19T20:38:04.445Z,10.38
2022-10-19T20:43:08.770Z,10.35
2022-10-19T20:48:12.102Z,10.35
2022-10-19T20:53:15.476Z,10.31
2022-10-19T20:58:22.787Z,10.28
2022-10-19T21:03:28.713Z,10.21
2022-10-19T21:08:31.864Z,10.24
2022-10-19T21:13:36.375Z,10.22
2022-10-19T21:18:40.297Z,10.20
2022-10-19T21:23:44.569Z,10.19
2022-10-19T21:28:50.353Z,10.22
2022-10-19T21:33:54.147Z,10.23
2022-10-19T21:38:57.460Z,10.24
2022-10-19T21:44:01.881Z,10.23
2022-10-19T21:49:05.111Z,10.21
2022-10-19T21:59:16.561Z,10.24
2022-10-19T22:04:19.924Z,10.22
2022-10-19T22:09:24.122Z,10.24
2022-10-19T22:14:28.711Z,10.22
2022-10-19T22:19:31.761Z,10.19
2022-10-19T22:24:35.484Z,10.22
2022-10-19T22:29:40.009Z,10.19
2022-10-19T22:34:42.969Z,10.20
2022-10-19T22:39:46.286Z,10.15
2022-10-19T22:44:50.726Z,10.09
2022-10-19T22:49:53.768Z,10.15
2022-10-19T22:54:56.911Z,10.15
2022-10-19T23:00:01.260Z,10.19
2022-10-19T23:05:04.391Z,10.24
2022-10-19T23:10:08.055Z,10.25
2022-10-19T23:15:12.819Z,10.29
2022-10-19T23:20:16.335Z,10.29
2022-10-19T23:25:19.608Z,10.33
2022-10-19T23:30:24.048Z,10.31
2022-10-19T23:35:27.197Z,10.32
2022-10-19T23:40:30.310Z,10.36
2022-10-19T23:45:34.854Z,10.36
2022-10-19T23:50:38.076Z,10.36
2022-10-19T23:55:41.156Z,10.37
